sensor_id;sensor_type;location;lat;lon;timestamp;temperature;humidity
19214;DHT22;9741;51.020;5.304;2022-09-24T00:01:48;15.40;62.20
19214;DHT22;9741;51.020;5.304;2022-09-24T00:04:16;15.40;62.20
19214;DHT22;9741;51.020;5.304;2022-09-24T00:06:45;15.30;62.00
19214;DHT22;9741;51.020;5.304;2022-09-24T00:09:15;15.30;62.10
19214;DHT22;9741;51.020;5.304;2022-09-24T00:11:43;15.30;62.00
19214;DHT22;9741;51.020;5.304;2022-09-24T00:14:11;15.30;62.00
19214;DHT22;9741;51.020;5.304;2022-09-24T00:16:40;15.30;62.10
19214;DHT22;9741;51.020;5.304;2022-09-24T00:19:11;15.30;62.00
19214;DHT22;9741;51.020;5.304;2022-09-24T00:21:40;15.20;62.00
19214;DHT22;9741;51.020;5.304;2022-09-24T00:24:09;15.30;62.10
19214;DHT22;9741;51.020;5.304;2022-09-24T00:26:58;15.20;62.10
19214;DHT22;9741;51.020;5.304;2022-09-24T00:29:26;15.20;62.10
19214;DHT22;9741;51.020;5.304;2022-09-24T00:31:53;15.20;62.10
19214;DHT22;9741;51.020;5.304;2022-09-24T00:34:22;15.10;62.10
19214;DHT22;9741;51.020;5.304;2022-09-24T00:36:49;15.10;62.20
19214;DHT22;9741;51.020;5.304;2022-09-24T00:39:18;15.20;62.30
19214;DHT22;9741;51.020;5.304;2022-09-24T00:41:45;15.10;62.20
19214;DHT22;9741;51.020;5.304;2022-09-24T00:44:49;15.20;62.30
19214;DHT22;9741;51.020;5.304;2022-09-24T00:47:37;15.20;62.30
19214;DHT22;9741;51.020;5.304;2022-09-24T00:50:19;15.20;62.30
19214;DHT22;9741;51.020;5.304;2022-09-24T00:52:52;15.10;62.30
19214;DHT22;9741;51.020;5.304;2022-09-24T00:55:26;15.10;62.30
19214;DHT22;9741;51.020;5.304;2022-09-24T00:57:55;15.10;62.30
19214;DHT22;9741;51.020;5.304;2022-09-24T01:00:26;15.10;62.30
19214;DHT22;9741;51.020;5.304;2022-09-24T01:02:57;15.10;62.40
19214;DHT22;9741;51.020;5.304;2022-09-24T01:05:27;15.10;62.50
19214;DHT22;9741;51.020;5.304;2022-09-24T01:07:54;15.10;62.50
19214;DHT22;9741;51.020;5.304;2022-09-24T01:10:31;15.10;62.50
19214;DHT22;9741;51.020;5.304;2022-09-24T01:16:17;15.10;62.50
19214;DHT22;9741;51.020;5.304;2022-09-24T01:18:51;15.10;62.60
19214;DHT22;9741;51.020;5.304;2022-09-24T01:21:27;15.10;62.70
19214;DHT22;9741;51.020;5.304;2022-09-24T01:24:21;15.10;62.70
19214;DHT22;9741;51.020;5.304;2022-09-24T01:27:02;15.10;62.70
19214;DHT22;9741;51.020;5.304;2022-09-24T01:29:42;15.10;62.70
19214;DHT22;9741;51.020;5.304;2022-09-24T01:32:16;15.10;62.80
19214;DHT22;9741;51.020;5.304;2022-09-24T01:34:48;15.10;62.80
19214;DHT22;9741;51.020;5.304;2022-09-24T01:37:21;15.00;62.70
19214;DHT22;9741;51.020;5.304;2022-09-24T01:39:51;15.00;62.80
19214;DHT22;9741;51.020;5.304;2022-09-24T01:42:21;15.00;62.80
19214;DHT22;9741;51.020;5.304;2022-09-24T01:44:51;15.10;62.90
19214;DHT22;9741;51.020;5.304;2022-09-24T01:47:24;15.10;62.90
19214;DHT22;9741;51.020;5.304;2022-09-24T01:49:56;15.10;63.00
19214;DHT22;9741;51.020;5.304;2022-09-24T01:52:28;15.10;63.00
19214;DHT22;9741;51.020;5.304;2022-09-24T01:54:59;15.10;63.00
19214;DHT22;9741;51.020;5.304;2022-09-24T01:57:34;15.00;62.90
19214;DHT22;9741;51.020;5.304;2022-09-24T02:00:11;15.10;63.00
19214;DHT22;9741;51.020;5.304;2022-09-24T02:02:45;15.00;62.90
19214;DHT22;9741;51.020;5.304;2022-09-24T02:05:19;15.10;63.00
19214;DHT22;9741;51.020;5.304;2022-09-24T02:07:55;15.00;62.90
19214;DHT22;9741;51.020;5.304;2022-09-24T02:10:28;15.00;62.90
19214;DHT22;9741;51.020;5.304;2022-09-24T02:13:01;15.00;63.00
19214;DHT22;9741;51.020;5.304;2022-09-24T02:15:35;15.00;63.00
19214;DHT22;9741;51.020;5.304;2022-09-24T02:18:08;15.00;63.10
19214;DHT22;9741;51.020;5.304;2022-09-24T02:20:40;15.00;63.10
19214;DHT22;9741;51.020;5.304;2022-09-24T02:23:10;15.00;63.20
19214;DHT22;9741;51.020;5.304;2022-09-24T02:25:40;15.00;63.20
19214;DHT22;9741;51.020;5.304;2022-09-24T02:28:09;15.00;63.20
19214;DHT22;9741;51.020;5.304;2022-09-24T02:30:44;15.00;63.20
19214;DHT22;9741;51.020;5.304;2022-09-24T02:33:15;15.00;63.20
19214;DHT22;9741;51.020;5.304;2022-09-24T02:36:01;15.10;63.30
19214;DHT22;9741;51.020;5.304;2022-09-24T02:38:28;15.10;63.30
19214;DHT22;9741;51.020;5.304;2022-09-24T02:40:55;15.10;63.30
19214;DHT22;9741;51.020;5.304;2022-09-24T02:43:23;15.10;63.30
19214;DHT22;9741;51.020;5.304;2022-09-24T02:45:53;15.10;63.30
19214;DHT22;9741;51.020;5.304;2022-09-24T02:48:20;15.20;63.30
19214;DHT22;9741;51.020;5.304;2022-09-24T02:50:47;15.20;63.30
19214;DHT22;9741;51.020;5.304;2022-09-24T02:53:15;15.10;63.20
19214;DHT22;9741;51.020;5.304;2022-09-24T02:55:44;15.20;63.30
19214;DHT22;9741;51.020;5.304;2022-09-24T02:58:11;15.10;63.20
19214;DHT22;9741;51.020;5.304;2022-09-24T03:00:38;15.20;63.20
19214;DHT22;9741;51.020;5.304;2022-09-24T03:03:07;15.20;63.20
19214;DHT22;9741;51.020;5.304;2022-09-24T03:05:34;15.20;63.20
19214;DHT22;9741;51.020;5.304;2022-09-24T03:08:01;15.20;63.20
19214;DHT22;9741;51.020;5.304;2022-09-24T03:10:29;15.20;63.20
19214;DHT22;9741;51.020;5.304;2022-09-24T03:12:56;15.20;63.20
19214;DHT22;9741;51.020;5.304;2022-09-24T03:15:23;15.20;63.20
19214;DHT22;9741;51.020;5.304;2022-09-24T03:17:54;15.20;63.10
19214;DHT22;9741;51.020;5.304;2022-09-24T03:20:24;15.20;63.10
19214;DHT22;9741;51.020;5.304;2022-09-24T03:22:52;15.10;63.10
19214;DHT22;9741;51.020;5.304;2022-09-24T03:25:19;15.10;63.10
19214;DHT22;9741;51.020;5.304;2022-09-24T03:27:47;15.10;63.20
19214;DHT22;9741;51.020;5.304;2022-09-24T03:30:15;15.10;63.20
19214;DHT22;9741;51.020;5.304;2022-09-24T03:33:00;15.00;63.10
19214;DHT22;9741;51.020;5.304;2022-09-24T03:35:32;15.00;63.20
19214;DHT22;9741;51.020;5.304;2022-09-24T03:37:59;15.10;63.30
19214;DHT22;9741;51.020;5.304;2022-09-24T03:40:27;15.00;63.20
19214;DHT22;9741;51.020;5.304;2022-09-24T03:42:54;15.00;63.20
19214;DHT22;9741;51.020;5.304;2022-09-24T03:45:21;15.00;63.30
19214;DHT22;9741;51.020;5.304;2022-09-24T03:47:49;15.00;63.20
19214;DHT22;9741;51.020;5.304;2022-09-24T03:50:17;15.00;63.20
19214;DHT22;9741;51.020;5.304;2022-09-24T03:52:45;15.00;63.30
19214;DHT22;9741;51.020;5.304;2022-09-24T03:55:13;14.90;63.10
19214;DHT22;9741;51.020;5.304;2022-09-24T03:57:41;14.90;63.20
19214;DHT22;9741;51.020;5.304;2022-09-24T04:00:10;14.90;63.20
19214;DHT22;9741;51.020;5.304;2022-09-24T04:02:39;14.90;63.30
19214;DHT22;9741;51.020;5.304;2022-09-24T04:05:08;14.90;63.30
19214;DHT22;9741;51.020;5.304;2022-09-24T04:07:41;14.80;63.30
19214;DHT22;9741;51.020;5.304;2022-09-24T04:10:09;14.80;63.40
19214;DHT22;9741;51.020;5.304;2022-09-24T04:12:37;14.90;63.40
19214;DHT22;9741;51.020;5.304;2022-09-24T04:15:06;14.90;63.50
19214;DHT22;9741;51.020;5.304;2022-09-24T04:17:34;14.90;63.50
19214;DHT22;9741;51.020;5.304;2022-09-24T04:20:01;14.80;63.30
19214;DHT22;9741;51.020;5.304;2022-09-24T04:22:28;14.90;63.40
19214;DHT22;9741;51.020;5.304;2022-09-24T04:24:57;14.90;63.40
19214;DHT22;9741;51.020;5.304;2022-09-24T04:27:29;14.80;63.30
19214;DHT22;9741;51.020;5.304;2022-09-24T04:29:56;14.90;63.40
19214;DHT22;9741;51.020;5.304;2022-09-24T04:32:23;14.80;63.30
19214;DHT22;9741;51.020;5.304;2022-09-24T04:34:50;14.90;63.40
19214;DHT22;9741;51.020;5.304;2022-09-24T04:37:17;14.80;63.40
19214;DHT22;9741;51.020;5.304;2022-09-24T04:39:44;14.90;63.50
19214;DHT22;9741;51.020;5.304;2022-09-24T04:42:15;14.90;63.50
19214;DHT22;9741;51.020;5.304;2022-09-24T04:44:46;14.90;63.60
19214;DHT22;9741;51.020;5.304;2022-09-24T04:47:14;14.80;63.90
19214;DHT22;9741;51.020;5.304;2022-09-24T04:49:41;14.90;63.60
19214;DHT22;9741;51.020;5.304;2022-09-24T04:52:11;14.80;63.60
19214;DHT22;9741;51.020;5.304;2022-09-24T04:54:39;14.90;63.70
19214;DHT22;9741;51.020;5.304;2022-09-24T04:57:10;14.90;63.70
19214;DHT22;9741;51.020;5.304;2022-09-24T04:59:37;14.90;63.70
19214;DHT22;9741;51.020;5.304;2022-09-24T05:02:07;14.90;63.70
19214;DHT22;9741;51.020;5.304;2022-09-24T05:04:34;15.00;63.80
19214;DHT22;9741;51.020;5.304;2022-09-24T05:07:01;14.90;63.60
19214;DHT22;9741;51.020;5.304;2022-09-24T05:09:31;15.00;63.80
19214;DHT22;9741;51.020;5.304;2022-09-24T05:11:59;14.90;63.70
19214;DHT22;9741;51.020;5.304;2022-09-24T05:14:27;14.90;63.70
19214;DHT22;9741;51.020;5.304;2022-09-24T05:16:55;14.90;63.70
19214;DHT22;9741;51.020;5.304;2022-09-24T05:19:26;14.90;63.80
19214;DHT22;9741;51.020;5.304;2022-09-24T05:21:53;14.90;63.80
19214;DHT22;9741;51.020;5.304;2022-09-24T05:24:20;14.90;63.80
19214;DHT22;9741;51.020;5.304;2022-09-24T05:26:47;14.80;63.80
19214;DHT22;9741;51.020;5.304;2022-09-24T05:29:34;14.80;63.90
19214;DHT22;9741;51.020;5.304;2022-09-24T05:32:03;14.80;63.90
19214;DHT22;9741;51.020;5.304;2022-09-24T05:34:33;14.80;63.90
19214;DHT22;9741;51.020;5.304;2022-09-24T05:37:00;14.80;63.90
19214;DHT22;9741;51.020;5.304;2022-09-24T05:39:28;14.70;63.90
19214;DHT22;9741;51.020;5.304;2022-09-24T05:41:55;14.80;64.10
19214;DHT22;9741;51.020;5.304;2022-09-24T05:44:23;14.80;64.10
19214;DHT22;9741;51.020;5.304;2022-09-24T05:46:51;14.80;64.10
19214;DHT22;9741;51.020;5.304;2022-09-24T05:49:19;14.80;64.10
19214;DHT22;9741;51.020;5.304;2022-09-24T05:51:49;14.80;64.20
19214;DHT22;9741;51.020;5.304;2022-09-24T05:54:16;14.80;64.20
19214;DHT22;9741;51.020;5.304;2022-09-24T05:56:44;14.80;64.20
19214;DHT22;9741;51.020;5.304;2022-09-24T05:59:12;14.80;64.20
19214;DHT22;9741;51.020;5.304;2022-09-24T06:01:40;14.80;64.30
19214;DHT22;9741;51.020;5.304;2022-09-24T06:04:09;14.80;64.20
19214;DHT22;9741;51.020;5.304;2022-09-24T06:06:38;14.80;64.30
19214;DHT22;9741;51.020;5.304;2022-09-24T06:09:07;14.90;64.40
19214;DHT22;9741;51.020;5.304;2022-09-24T06:11:36;14.90;64.30
19214;DHT22;9741;51.020;5.304;2022-09-24T06:14:07;14.90;64.30
19214;DHT22;9741;51.020;5.304;2022-09-24T06:16:34;14.90;64.40
19214;DHT22;9741;51.020;5.304;2022-09-24T06:19:02;14.90;64.40
19214;DHT22;9741;51.020;5.304;2022-09-24T06:21:31;15.00;64.50
19214;DHT22;9741;51.020;5.304;2022-09-24T06:23:58;15.00;64.50
19214;DHT22;9741;51.020;5.304;2022-09-24T06:26:30;15.00;64.50
19214;DHT22;9741;51.020;5.304;2022-09-24T06:28:58;15.00;64.50
19214;DHT22;9741;51.020;5.304;2022-09-24T06:31:25;15.00;64.50
19214;DHT22;9741;51.020;5.304;2022-09-24T06:33:53;15.00;64.50
19214;DHT22;9741;51.020;5.304;2022-09-24T06:36:23;15.10;64.70
19214;DHT22;9741;51.020;5.304;2022-09-24T06:38:54;15.10;64.60
19214;DHT22;9741;51.020;5.304;2022-09-24T06:41:23;15.10;64.70
19214;DHT22;9741;51.020;5.304;2022-09-24T06:43:55;15.10;64.70
19214;DHT22;9741;51.020;5.304;2022-09-24T06:46:23;15.20;64.80
19214;DHT22;9741;51.020;5.304;2022-09-24T06:48:51;15.20;64.80
19214;DHT22;9741;51.020;5.304;2022-09-24T06:51:22;15.30;64.90
19214;DHT22;9741;51.020;5.304;2022-09-24T06:53:52;15.30;64.90
19214;DHT22;9741;51.020;5.304;2022-09-24T06:56:22;15.30;64.90
19214;DHT22;9741;51.020;5.304;2022-09-24T06:58:51;15.40;65.00
19214;DHT22;9741;51.020;5.304;2022-09-24T07:01:20;15.40;64.90
19214;DHT22;9741;51.020;5.304;2022-09-24T07:03:48;15.50;65.00
19214;DHT22;9741;51.020;5.304;2022-09-24T07:06:16;15.50;64.90
19214;DHT22;9741;51.020;5.304;2022-09-24T07:08:44;15.60;65.00
19214;DHT22;9741;51.020;5.304;2022-09-24T07:11:17;15.70;65.10
19214;DHT22;9741;51.020;5.304;2022-09-24T07:13:46;15.70;65.10
19214;DHT22;9741;51.020;5.304;2022-09-24T07:16:13;15.80;65.10
19214;DHT22;9741;51.020;5.304;2022-09-24T07:18:42;15.90;65.20
19214;DHT22;9741;51.020;5.304;2022-09-24T07:21:10;15.90;65.20
19214;DHT22;9741;51.020;5.304;2022-09-24T07:23:40;16.00;65.20
19214;DHT22;9741;51.020;5.304;2022-09-24T07:26:08;16.00;65.10
19214;DHT22;9741;51.020;5.304;2022-09-24T07:28:36;16.00;65.10
19214;DHT22;9741;51.020;5.304;2022-09-24T07:31:03;16.10;65.10
19214;DHT22;9741;51.020;5.304;2022-09-24T07:33:31;16.10;65.10
19214;DHT22;9741;51.020;5.304;2022-09-24T07:36:03;16.10;65.10
19214;DHT22;9741;51.020;5.304;2022-09-24T07:38:32;16.20;65.20
19214;DHT22;9741;51.020;5.304;2022-09-24T07:41:01;16.20;65.10
19214;DHT22;9741;51.020;5.304;2022-09-24T07:43:29;16.20;65.00
19214;DHT22;9741;51.020;5.304;2022-09-24T07:45:58;16.30;65.10
19214;DHT22;9741;51.020;5.304;2022-09-24T07:48:28;16.30;65.00
19214;DHT22;9741;51.020;5.304;2022-09-24T07:51:06;16.30;65.00
19214;DHT22;9741;51.020;5.304;2022-09-24T07:53:35;16.30;65.00
19214;DHT22;9741;51.020;5.304;2022-09-24T07:56:03;16.30;65.00
19214;DHT22;9741;51.020;5.304;2022-09-24T07:58:31;16.40;65.10
19214;DHT22;9741;51.020;5.304;2022-09-24T08:00:59;16.40;65.10
19214;DHT22;9741;51.020;5.304;2022-09-24T08:03:27;16.40;65.10
19214;DHT22;9741;51.020;5.304;2022-09-24T08:05:55;16.40;65.00
19214;DHT22;9741;51.020;5.304;2022-09-24T08:08:29;16.40;65.10
19214;DHT22;9741;51.020;5.304;2022-09-24T08:10:56;16.40;65.00
19214;DHT22;9741;51.020;5.304;2022-09-24T08:13:24;16.40;65.00
19214;DHT22;9741;51.020;5.304;2022-09-24T08:15:56;16.40;65.00
19214;DHT22;9741;51.020;5.304;2022-09-24T08:18:25;16.40;65.00
19214;DHT22;9741;51.020;5.304;2022-09-24T08:20:52;16.40;65.00
19214;DHT22;9741;51.020;5.304;2022-09-24T08:23:19;16.40;65.00
19214;DHT22;9741;51.020;5.304;2022-09-24T08:25:48;16.50;65.10
19214;DHT22;9741;51.020;5.304;2022-09-24T08:28:16;16.50;65.10
19214;DHT22;9741;51.020;5.304;2022-09-24T08:30:44;16.50;65.10
19214;DHT22;9741;51.020;5.304;2022-09-24T08:33:12;16.60;65.30
19214;DHT22;9741;51.020;5.304;2022-09-24T08:35:42;16.60;65.10
19214;DHT22;9741;51.020;5.304;2022-09-24T08:38:10;16.70;65.20
19214;DHT22;9741;51.020;5.304;2022-09-24T08:40:42;16.70;65.10
19214;DHT22;9741;51.020;5.304;2022-09-24T08:43:25;16.70;65.00
19214;DHT22;9741;51.020;5.304;2022-09-24T08:45:55;16.70;65.00
19214;DHT22;9741;51.020;5.304;2022-09-24T08:48:45;16.70;65.00
19214;DHT22;9741;51.020;5.304;2022-09-24T08:51:15;16.80;65.10
19214;DHT22;9741;51.020;5.304;2022-09-24T08:53:49;16.80;65.10
19214;DHT22;9741;51.020;5.304;2022-09-24T08:56:19;16.80;65.10
19214;DHT22;9741;51.020;5.304;2022-09-24T08:58:54;16.90;65.10
19214;DHT22;9741;51.020;5.304;2022-09-24T09:01:30;16.90;65.10
19214;DHT22;9741;51.020;5.304;2022-09-24T09:04:03;17.00;65.20
19214;DHT22;9741;51.020;5.304;2022-09-24T09:06:50;17.00;65.20
19214;DHT22;9741;51.020;5.304;2022-09-24T09:09:24;17.10;65.20
19214;DHT22;9741;51.020;5.304;2022-09-24T09:11:58;17.10;65.20
19214;DHT22;9741;51.020;5.304;2022-09-24T09:14:35;17.20;65.30
19214;DHT22;9741;51.020;5.304;2022-09-24T09:17:14;17.20;65.20
19214;DHT22;9741;51.020;5.304;2022-09-24T09:19:52;17.30;65.30
19214;DHT22;9741;51.020;5.304;2022-09-24T09:22:23;17.30;65.30
19214;DHT22;9741;51.020;5.304;2022-09-24T09:24:54;17.40;65.30
19214;DHT22;9741;51.020;5.304;2022-09-24T09:27:25;17.50;65.40
19214;DHT22;9741;51.020;5.304;2022-09-24T09:29:57;17.50;65.40
19214;DHT22;9741;51.020;5.304;2022-09-24T09:32:37;17.70;65.50
19214;DHT22;9741;51.020;5.304;2022-09-24T09:35:14;17.80;65.40
19214;DHT22;9741;51.020;5.304;2022-09-24T09:37:51;17.90;65.40
19214;DHT22;9741;51.020;5.304;2022-09-24T09:40:27;18.10;65.40
19214;DHT22;9741;51.020;5.304;2022-09-24T09:42:59;18.20;65.30
19214;DHT22;9741;51.020;5.304;2022-09-24T09:45:39;18.30;65.20
19214;DHT22;9741;51.020;5.304;2022-09-24T09:48:09;18.40;65.20
19214;DHT22;9741;51.020;5.304;2022-09-24T09:50:44;18.50;65.10
19214;DHT22;9741;51.020;5.304;2022-09-24T09:53:21;18.60;65.10
19214;DHT22;9741;51.020;5.304;2022-09-24T09:55:55;18.70;65.00
19214;DHT22;9741;51.020;5.304;2022-09-24T09:58:24;18.80;65.00
19214;DHT22;9741;51.020;5.304;2022-09-24T10:01:03;18.90;65.00
19214;DHT22;9741;51.020;5.304;2022-09-24T10:03:45;19.00;64.90
19214;DHT22;9741;51.020;5.304;2022-09-24T10:06:22;19.10;64.80
19214;DHT22;9741;51.020;5.304;2022-09-24T10:08:52;19.10;64.60
19214;DHT22;9741;51.020;5.304;2022-09-24T10:11:21;19.20;64.60
19214;DHT22;9741;51.020;5.304;2022-09-24T10:14:01;19.20;64.30
19214;DHT22;9741;51.020;5.304;2022-09-24T10:16:36;19.20;64.20
19214;DHT22;9741;51.020;5.304;2022-09-24T10:19:14;19.20;64.10
19214;DHT22;9741;51.020;5.304;2022-09-24T10:21:43;19.20;64.00
19214;DHT22;9741;51.020;5.304;2022-09-24T10:24:14;19.30;64.10
19214;DHT22;9741;51.020;5.304;2022-09-24T10:26:46;19.30;64.00
19214;DHT22;9741;51.020;5.304;2022-09-24T10:29:17;19.40;64.00
19214;DHT22;9741;51.020;5.304;2022-09-24T10:32:05;19.40;63.90
19214;DHT22;9741;51.020;5.304;2022-09-24T10:34:33;19.60;64.00
19214;DHT22;9741;51.020;5.304;2022-09-24T10:37:02;19.60;63.80
19214;DHT22;9741;51.020;5.304;2022-09-24T10:39:32;19.70;63.60
19214;DHT22;9741;51.020;5.304;2022-09-24T10:42:00;19.80;63.60
19214;DHT22;9741;51.020;5.304;2022-09-24T10:44:34;19.90;63.50
19214;DHT22;9741;51.020;5.304;2022-09-24T10:47:14;20.00;63.40
19214;DHT22;9741;51.020;5.304;2022-09-24T10:50:06;20.00;63.10
19214;DHT22;9741;51.020;5.304;2022-09-24T10:52:46;20.10;63.60
19214;DHT22;9741;51.020;5.304;2022-09-24T10:55:27;20.10;63.60
19214;DHT22;9741;51.020;5.304;2022-09-24T10:58:06;20.20;62.90
19214;DHT22;9741;51.020;5.304;2022-09-24T11:00:46;20.20;62.80
19214;DHT22;9741;51.020;5.304;2022-09-24T11:06:43;20.40;62.50
19214;DHT22;9741;51.020;5.304;2022-09-24T11:09:25;20.40;62.30
19214;DHT22;9741;51.020;5.304;2022-09-24T11:12:02;20.50;62.30
19214;DHT22;9741;51.020;5.304;2022-09-24T11:15:10;20.50;62.10
19214;DHT22;9741;51.020;5.304;2022-09-24T11:17:52;20.60;62.00
19214;DHT22;9741;51.020;5.304;2022-09-24T11:20:29;20.60;61.90
19214;DHT22;9741;51.020;5.304;2022-09-24T11:26:44;20.60;61.50
19214;DHT22;9741;51.020;5.304;2022-09-24T11:29:43;20.50;61.30
19214;DHT22;9741;51.020;5.304;2022-09-24T11:32:19;20.50;61.20
19214;DHT22;9741;51.020;5.304;2022-09-24T11:35:00;20.40;61.10
19214;DHT22;9741;51.020;5.304;2022-09-24T11:37:42;20.40;61.00
19214;DHT22;9741;51.020;5.304;2022-09-24T11:40:25;20.30;61.00
19214;DHT22;9741;51.020;5.304;2022-09-24T11:43:13;20.30;61.10
19214;DHT22;9741;51.020;5.304;2022-09-24T11:45:53;20.30;61.10
19214;DHT22;9741;51.020;5.304;2022-09-24T11:48:48;20.40;61.10
19214;DHT22;9741;51.020;5.304;2022-09-24T11:51:27;20.40;61.00
19214;DHT22;9741;51.020;5.304;2022-09-24T11:54:02;20.40;61.00
19214;DHT22;9741;51.020;5.304;2022-09-24T11:56:39;20.30;60.90
19214;DHT22;9741;51.020;5.304;2022-09-24T11:59:14;20.40;60.90
19214;DHT22;9741;51.020;5.304;2022-09-24T12:01:48;20.40;60.90
19214;DHT22;9741;51.020;5.304;2022-09-24T12:04:20;20.40;60.80
19214;DHT22;9741;51.020;5.304;2022-09-24T12:06:57;20.40;60.60
19214;DHT22;9741;51.020;5.304;2022-09-24T12:09:29;20.40;60.60
19214;DHT22;9741;51.020;5.304;2022-09-24T12:12:02;20.40;60.50
19214;DHT22;9741;51.020;5.304;2022-09-24T12:14:42;20.40;60.50
19214;DHT22;9741;51.020;5.304;2022-09-24T12:17:16;20.50;60.50
19214;DHT22;9741;51.020;5.304;2022-09-24T12:19:49;20.50;60.40
19214;DHT22;9741;51.020;5.304;2022-09-24T12:22:19;20.50;60.40
19214;DHT22;9741;51.020;5.304;2022-09-24T12:24:51;20.50;60.30
19214;DHT22;9741;51.020;5.304;2022-09-24T12:27:24;20.50;60.30
19214;DHT22;9741;51.020;5.304;2022-09-24T12:30:00;20.50;60.20
19214;DHT22;9741;51.020;5.304;2022-09-24T12:32:52;20.50;60.20
19214;DHT22;9741;51.020;5.304;2022-09-24T12:35:35;20.50;60.10
19214;DHT22;9741;51.020;5.304;2022-09-24T12:38:06;20.50;59.90
19214;DHT22;9741;51.020;5.304;2022-09-24T12:40:58;20.50;59.90
19214;DHT22;9741;51.020;5.304;2022-09-24T12:43:35;20.60;60.00
19214;DHT22;9741;51.020;5.304;2022-09-24T12:46:11;20.60;60.10
19214;DHT22;9741;51.020;5.304;2022-09-24T12:48:42;20.70;60.10
19214;DHT22;9741;51.020;5.304;2022-09-24T12:51:11;20.80;60.10
19214;DHT22;9741;51.020;5.304;2022-09-24T12:53:41;20.90;60.20
19214;DHT22;9741;51.020;5.304;2022-09-24T12:56:12;20.90;60.00
19214;DHT22;9741;51.020;5.304;2022-09-24T12:58:49;20.90;59.90
19214;DHT22;9741;51.020;5.304;2022-09-24T13:01:28;21.00;59.90
19214;DHT22;9741;51.020;5.304;2022-09-24T13:06:51;21.10;59.60
19214;DHT22;9741;51.020;5.304;2022-09-24T13:09:33;21.00;59.40
19214;DHT22;9741;51.020;5.304;2022-09-24T13:12:03;21.00;59.20
19214;DHT22;9741;51.020;5.304;2022-09-24T13:14:32;21.00;59.80
19214;DHT22;9741;51.020;5.304;2022-09-24T13:17:05;21.00;59.10
19214;DHT22;9741;51.020;5.304;2022-09-24T13:19:41;20.90;58.90
19214;DHT22;9741;51.020;5.304;2022-09-24T13:22:21;20.90;59.00
19214;DHT22;9741;51.020;5.304;2022-09-24T13:25:08;20.80;58.90
19214;DHT22;9741;51.020;5.304;2022-09-24T13:27:38;20.80;58.90
19214;DHT22;9741;51.020;5.304;2022-09-24T13:30:16;20.70;58.80
19214;DHT22;9741;51.020;5.304;2022-09-24T13:32:56;20.70;58.80
19214;DHT22;9741;51.020;5.304;2022-09-24T13:35:27;20.60;58.60
19214;DHT22;9741;51.020;5.304;2022-09-24T13:38:04;20.60;58.80
19214;DHT22;9741;51.020;5.304;2022-09-24T13:40:38;20.60;58.70
19214;DHT22;9741;51.020;5.304;2022-09-24T13:43:13;20.50;58.50
19214;DHT22;9741;51.020;5.304;2022-09-24T13:45:44;20.50;58.40
19214;DHT22;9741;51.020;5.304;2022-09-24T13:48:21;20.50;58.50
19214;DHT22;9741;51.020;5.304;2022-09-24T13:50:55;20.50;58.60
19214;DHT22;9741;51.020;5.304;2022-09-24T13:53:29;20.50;58.70
19214;DHT22;9741;51.020;5.304;2022-09-24T13:56:01;20.50;58.70
19214;DHT22;9741;51.020;5.304;2022-09-24T13:58:31;20.60;58.80
19214;DHT22;9741;51.020;5.304;2022-09-24T14:01:01;20.60;58.80
19214;DHT22;9741;51.020;5.304;2022-09-24T14:03:33;20.60;58.60
19214;DHT22;9741;51.020;5.304;2022-09-24T14:06:09;20.60;58.40
19214;DHT22;9741;51.020;5.304;2022-09-24T14:08:40;20.60;58.20
19214;DHT22;9741;51.020;5.304;2022-09-24T14:11:14;20.60;58.30
19214;DHT22;9741;51.020;5.304;2022-09-24T14:13:43;20.50;58.20
19214;DHT22;9741;51.020;5.304;2022-09-24T14:16:14;20.60;58.20
19214;DHT22;9741;51.020;5.304;2022-09-24T14:18:45;20.60;58.10
19214;DHT22;9741;51.020;5.304;2022-09-24T14:21:20;20.50;58.00
19214;DHT22;9741;51.020;5.304;2022-09-24T14:23:52;20.50;58.00
19214;DHT22;9741;51.020;5.304;2022-09-24T14:26:25;20.50;57.90
19214;DHT22;9741;51.020;5.304;2022-09-24T14:28:56;20.40;57.80
19214;DHT22;9741;51.020;5.304;2022-09-24T14:31:27;20.40;57.90
19214;DHT22;9741;51.020;5.304;2022-09-24T14:34:02;20.40;58.00
19214;DHT22;9741;51.020;5.304;2022-09-24T14:36:34;20.40;58.10
19214;DHT22;9741;51.020;5.304;2022-09-24T14:39:05;20.40;57.90
19214;DHT22;9741;51.020;5.304;2022-09-24T14:41:34;20.40;57.80
19214;DHT22;9741;51.020;5.304;2022-09-24T14:44:06;20.30;57.60
19214;DHT22;9741;51.020;5.304;2022-09-24T14:46:36;20.30;57.60
19214;DHT22;9741;51.020;5.304;2022-09-24T14:49:18;20.30;58.20
19214;DHT22;9741;51.020;5.304;2022-09-24T14:51:51;20.30;57.60
19214;DHT22;9741;51.020;5.304;2022-09-24T14:54:25;20.30;57.70
19214;DHT22;9741;51.020;5.304;2022-09-24T14:56:55;20.30;57.70
19214;DHT22;9741;51.020;5.304;2022-09-24T14:59:28;20.30;57.60
19214;DHT22;9741;51.020;5.304;2022-09-24T15:02:14;20.30;57.50
19214;DHT22;9741;51.020;5.304;2022-09-24T15:05:06;20.30;57.50
19214;DHT22;9741;51.020;5.304;2022-09-24T15:07:34;20.20;57.40
19214;DHT22;9741;51.020;5.304;2022-09-24T15:10:05;20.20;57.40
19214;DHT22;9741;51.020;5.304;2022-09-24T15:12:36;20.20;57.30
19214;DHT22;9741;51.020;5.304;2022-09-24T15:15:27;20.10;57.20
19214;DHT22;9741;51.020;5.304;2022-09-24T15:17:55;20.10;57.10
19214;DHT22;9741;51.020;5.304;2022-09-24T15:20:26;20.00;57.00
19214;DHT22;9741;51.020;5.304;2022-09-24T15:22:56;20.00;57.00
19214;DHT22;9741;51.020;5.304;2022-09-24T15:25:23;19.90;57.00
19214;DHT22;9741;51.020;5.304;2022-09-24T15:27:50;19.90;57.10
19214;DHT22;9741;51.020;5.304;2022-09-24T15:30:20;19.80;57.00
19214;DHT22;9741;51.020;5.304;2022-09-24T15:32:48;19.80;57.00
19214;DHT22;9741;51.020;5.304;2022-09-24T15:35:17;19.80;57.00
19214;DHT22;9741;51.020;5.304;2022-09-24T15:37:45;19.70;57.00
19214;DHT22;9741;51.020;5.304;2022-09-24T15:40:19;19.60;56.80
19214;DHT22;9741;51.020;5.304;2022-09-24T15:42:48;19.60;56.80
19214;DHT22;9741;51.020;5.304;2022-09-24T15:45:18;19.50;56.90
19214;DHT22;9741;51.020;5.304;2022-09-24T15:47:48;19.50;56.90
19214;DHT22;9741;51.020;5.304;2022-09-24T15:50:16;19.40;56.90
19214;DHT22;9741;51.020;5.304;2022-09-24T15:52:47;19.30;57.00
19214;DHT22;9741;51.020;5.304;2022-09-24T15:55:17;19.30;57.10
19214;DHT22;9741;51.020;5.304;2022-09-24T15:57:45;19.20;57.10
19214;DHT22;9741;51.020;5.304;2022-09-24T16:00:19;19.20;57.20
19214;DHT22;9741;51.020;5.304;2022-09-24T16:02:50;19.10;57.20
19214;DHT22;9741;51.020;5.304;2022-09-24T16:05:21;19.10;57.20
19214;DHT22;9741;51.020;5.304;2022-09-24T16:07:52;19.00;57.20
19214;DHT22;9741;51.020;5.304;2022-09-24T16:10:19;19.00;57.40
19214;DHT22;9741;51.020;5.304;2022-09-24T16:12:48;18.90;57.30
19214;DHT22;9741;51.020;5.304;2022-09-24T16:15:16;18.90;57.40
19214;DHT22;9741;51.020;5.304;2022-09-24T16:17:46;18.90;57.50
19214;DHT22;9741;51.020;5.304;2022-09-24T16:20:17;18.90;57.60
19214;DHT22;9741;51.020;5.304;2022-09-24T16:22:47;18.80;57.50
19214;DHT22;9741;51.020;5.304;2022-09-24T16:25:17;18.80;57.60
19214;DHT22;9741;51.020;5.304;2022-09-24T16:27:44;18.80;57.70
19214;DHT22;9741;51.020;5.304;2022-09-24T16:30:12;18.70;57.70